createdAt,value
2018-11-13T00:00:24.321Z,13.35
2018-11-13T00:01:04.840Z,13.36
2018-11-13T00:01:45.252Z,13.32
2018-11-13T00:02:25.521Z,13.38
2018-11-13T00:03:05.933Z,13.31
2018-11-13T00:03:46.344Z,13.35
2018-11-13T00:04:26.874Z,13.35
2018-11-13T00:05:07.306Z,13.39
2018-11-13T00:05:47.653Z,13.39
2018-11-13T00:06:28.204Z,13.25
2018-11-13T00:07:08.668Z,13.24
2018-11-13T00:07:49.100Z,13.27
2018-11-13T00:08:29.597Z,13.27
2018-11-13T00:09:09.917Z,13.21
2018-11-13T00:09:50.311Z,13.19
2018-11-13T00:10:30.651Z,13.24
2018-11-13T00:11:11.508Z,13.27
2018-11-13T00:11:52.841Z,13.22
2018-11-13T00:12:33.345Z,13.21
2018-11-13T00:13:13.860Z,13.07
2018-11-13T00:13:54.134Z,13.1
2018-11-13T00:14:34.594Z,13.12
2018-11-13T00:15:15.095Z,13.1
2018-11-13T00:15:55.526Z,13.13
2018-11-13T00:16:36.138Z,13.17
2018-11-13T00:17:16.572Z,13.14
2018-11-13T00:17:56.929Z,13.06
2018-11-13T00:18:37.422Z,13.07
2018-11-13T00:19:17.888Z,13.07
2018-11-13T00:19:58.459Z,12.99
2018-11-13T00:20:40.312Z,12.95
2018-11-13T00:21:20.975Z,13.01
2018-11-13T00:22:01.559Z,12.89
2018-11-13T00:22:41.983Z,12.95
2018-11-13T00:23:22.484Z,12.8
2018-11-13T00:24:02.968Z,12.77
2018-11-13T00:24:45.193Z,12.77
2018-11-13T00:25:25.647Z,12.77
2018-11-13T00:26:06.502Z,12.79
2018-11-13T00:26:54.669Z,12.74
2018-11-13T00:27:35.669Z,12.73
2018-11-13T00:28:16.413Z,12.66
2018-11-13T00:28:58.143Z,12.59
2018-11-13T00:29:39.355Z,12.62
2018-11-13T00:30:25.544Z,12.59
2018-11-13T00:31:10.432Z,12.61
2018-11-13T00:31:52.032Z,12.48
2018-11-13T00:32:36.497Z,12.48
2018-11-13T00:34:23.085Z,12.4
2018-11-13T00:35:15.929Z,12.34
2018-11-13T00:36:08.738Z,12.31
2018-11-13T00:37:05.111Z,12.34
2018-11-13T00:38:01.249Z,12.36
2018-11-13T00:39:05.339Z,12.22
2018-11-13T00:41:10.988Z,12.16
2018-11-13T00:41:51.383Z,12.12
2018-11-13T00:42:31.780Z,12.01
2018-11-13T00:43:12.194Z,12.13
2018-11-13T00:43:52.596Z,12.12
2018-11-13T00:44:33.005Z,12.12
2018-11-13T00:45:13.422Z,12.11
2018-11-13T00:45:54.325Z,12.05
2018-11-13T00:46:34.281Z,12
2018-11-13T00:47:14.637Z,12.04
2018-11-13T00:47:55.046Z,12.08
2018-11-13T00:48:35.426Z,12.11
2018-11-13T00:49:15.888Z,12
2018-11-13T00:49:56.230Z,11.94
2018-11-13T00:52:08.984Z,11.96
2018-11-13T00:52:49.385Z,12
2018-11-13T00:53:29.745Z,11.97
2018-11-13T00:54:10.179Z,11.97
2018-11-13T00:54:50.666Z,11.96
2018-11-13T00:55:31.421Z,11.97
2018-11-13T00:56:11.926Z,11.9
2018-11-13T00:56:52.305Z,11.94
2018-11-13T00:57:32.784Z,12
2018-11-13T00:58:13.541Z,11.98
2018-11-13T00:58:53.853Z,12.03
2018-11-13T00:59:34.227Z,12
2018-11-13T01:00:14.676Z,11.98
2018-11-13T01:00:55.494Z,12.04
2018-11-13T01:01:35.432Z,11.94
2018-11-13T01:02:15.841Z,11.94
2018-11-13T01:02:56.205Z,12
2018-11-13T01:03:36.636Z,12.03
2018-11-13T01:04:17.012Z,12.04
2018-11-13T01:04:57.441Z,12.07
2018-11-13T01:05:37.907Z,12.05
2018-11-13T01:06:18.253Z,12.08
2018-11-13T01:06:58.670Z,12.11
2018-11-13T01:07:39.052Z,12.07
2018-11-13T01:08:19.476Z,12.13
2018-11-13T01:08:59.883Z,12.15
2018-11-13T01:09:40.332Z,12.13
2018-11-13T01:10:20.705Z,12.13
2018-11-13T01:11:01.142Z,12.21
2018-11-13T01:11:41.565Z,12.13
2018-11-13T01:12:21.937Z,12.11
2018-11-13T01:13:02.367Z,12.18
2018-11-13T01:13:42.789Z,12.16
2018-11-13T01:14:23.167Z,12.26
2018-11-13T01:15:03.706Z,12.07
2018-11-13T01:15:44.039Z,12.12
2018-11-13T01:16:24.442Z,12.07
2018-11-13T01:17:04.858Z,12.15
2018-11-13T01:17:45.264Z,12.13
2018-11-13T01:18:25.652Z,12.13
2018-11-13T01:19:06.077Z,12.13
2018-11-13T01:19:46.473Z,12.22
2018-11-13T01:20:26.938Z,12.21
2018-11-13T01:21:07.357Z,12.25
2018-11-13T01:21:47.737Z,12.26
2018-11-13T01:22:28.192Z,12.3
2018-11-13T01:23:08.548Z,12.38
2018-11-13T01:23:48.978Z,12.3
2018-11-13T01:24:29.352Z,12.31
2018-11-13T01:25:09.763Z,12.34
2018-11-13T01:25:50.163Z,12.25
2018-11-13T01:26:30.523Z,12.22
2018-11-13T01:29:36.470Z,12.16
2018-11-13T01:30:28.739Z,12.08
2018-11-13T01:31:20.775Z,12.13
2018-11-13T01:32:12.963Z,12.08
2018-11-13T01:33:04.819Z,12.11
2018-11-13T01:33:56.911Z,12.13
2018-11-13T01:34:49.401Z,12.15
2018-11-13T01:35:41.787Z,12.12
2018-11-13T01:36:34.581Z,12.15
2018-11-13T01:37:26.831Z,12.07
2018-11-13T01:38:18.966Z,12.22
2018-11-13T01:39:11.434Z,12.29
2018-11-13T01:40:03.440Z,12.34
2018-11-13T01:40:55.918Z,12.34
2018-11-13T01:41:48.697Z,12.33
2018-11-13T01:42:40.351Z,12.43
2018-11-13T01:43:32.598Z,12.4
2018-11-13T01:44:24.796Z,12.49
2018-11-13T01:45:16.861Z,12.48
2018-11-13T01:46:09.485Z,12.51
2018-11-13T01:47:02.378Z,12.46
2018-11-13T01:47:54.919Z,12.46
2018-11-13T01:48:47.637Z,12.48
2018-11-13T01:49:40.332Z,12.44
2018-11-13T01:50:31.983Z,12.44
2018-11-13T01:51:25.444Z,12.54
2018-11-13T01:52:17.970Z,12.4
2018-11-13T01:53:09.552Z,12.48
2018-11-13T01:54:01.415Z,12.49
2018-11-13T01:54:53.437Z,12.41
2018-11-13T01:55:45.482Z,12.48
2018-11-13T01:56:37.582Z,12.43
2018-11-13T01:57:29.868Z,12.52
2018-11-13T01:58:21.616Z,12.55
2018-11-13T01:59:14.027Z,12.48
2018-11-13T02:00:05.968Z,12.49
2018-11-13T02:00:55.629Z,12.48
2018-11-13T02:01:35.391Z,12.58
2018-11-13T02:02:15.876Z,12.55
2018-11-13T02:02:56.226Z,12.55
2018-11-13T02:03:36.645Z,12.61
2018-11-13T02:04:17.093Z,12.55
2018-11-13T02:04:57.545Z,12.55
2018-11-13T02:05:37.929Z,12.56
2018-11-13T02:06:18.376Z,12.59
2018-11-13T02:06:58.818Z,12.59
2018-11-13T02:07:39.239Z,12.58
2018-11-13T02:08:19.685Z,12.55
2018-11-13T02:09:00.125Z,12.59
2018-11-13T02:09:40.525Z,12.58
2018-11-13T02:10:20.901Z,12.55
2018-11-13T02:11:01.258Z,12.55
2018-11-13T02:11:42.343Z,12.63
2018-11-13T02:12:22.803Z,12.62
2018-11-13T02:13:03.088Z,12.61
2018-11-13T02:13:43.581Z,12.44
2018-11-13T02:14:24.445Z,12.51
2018-11-13T02:15:04.872Z,12.36
2018-11-13T02:15:45.367Z,12.37
2018-11-13T02:16:25.711Z,12.37
2018-11-13T02:17:06.125Z,12.31
2018-11-13T02:17:46.581Z,12.33
2018-11-13T02:18:26.945Z,12.37
2018-11-13T02:19:07.742Z,12.29
2018-11-13T02:19:48.985Z,12.25
2018-11-13T02:20:30.116Z,12.26
2018-11-13T02:21:10.471Z,12.25
2018-11-13T02:21:52.071Z,12.25
2018-11-13T02:22:33.475Z,12.3
2018-11-13T02:23:14.900Z,12.18
2018-11-13T02:23:56.102Z,12.12
2018-11-13T02:24:37.371Z,12.18
2018-11-13T02:25:17.982Z,12.19
2018-11-13T02:25:58.350Z,12.26
2018-11-13T02:26:38.696Z,12.25
2018-11-13T02:27:19.224Z,12.29
2018-11-13T02:27:59.628Z,12.3
2018-11-13T02:28:40.068Z,12.34
2018-11-13T02:29:20.445Z,12.38
2018-11-13T02:30:00.806Z,12.43
2018-11-13T02:30:41.197Z,12.48
2018-11-13T02:31:21.697Z,12.58
2018-11-13T02:32:02.046Z,12.56
2018-11-13T02:32:42.442Z,12.7
2018-11-13T02:33:22.834Z,12.66
2018-11-13T02:34:03.458Z,12.66
2018-11-13T02:35:14.159Z,12.74
2018-11-13T02:35:52.912Z,12.73
2018-11-13T02:36:33.301Z,12.7
2018-11-13T02:37:13.770Z,12.8
2018-11-13T02:37:54.095Z,12.8
2018-11-13T02:38:34.870Z,12.8
2018-11-13T02:39:15.238Z,12.7
2018-11-13T02:39:55.805Z,12.61
2018-11-13T02:40:36.596Z,12.59
2018-11-13T02:41:16.891Z,12.67
2018-11-13T02:41:57.289Z,12.74
2018-11-13T02:42:37.645Z,12.71
2018-11-13T02:43:17.995Z,12.69
2018-11-13T02:43:58.462Z,12.63
2018-11-13T02:44:38.896Z,12.71
2018-11-13T02:45:19.364Z,12.77
2018-11-13T02:45:59.763Z,12.71
2018-11-13T02:46:40.201Z,12.77
2018-11-13T02:47:20.554Z,12.77
2018-11-13T02:48:00.963Z,12.77
2018-11-13T02:48:41.385Z,12.79
2018-11-13T02:49:21.828Z,12.8
2018-11-13T02:50:02.182Z,12.84
2018-11-13T02:50:42.596Z,12.8
2018-11-13T02:51:22.973Z,12.94
2018-11-13T02:52:03.382Z,12.85
2018-11-13T02:52:43.732Z,12.94
2018-11-13T02:53:24.232Z,12.91
2018-11-13T02:54:04.513Z,12.85
2018-11-13T02:54:44.978Z,12.89
2018-11-13T02:55:25.317Z,12.81
2018-11-13T02:56:05.677Z,12.87
2018-11-13T02:56:46.155Z,12.95
2018-11-13T02:57:26.441Z,12.98
2018-11-13T02:58:06.977Z,12.95
2018-11-13T02:58:47.395Z,12.94
2018-11-13T02:59:27.778Z,12.98
2018-11-13T03:00:08.152Z,12.96
2018-11-13T03:00:48.735Z,12.89
2018-11-13T03:01:29.718Z,12.99
2018-11-13T03:02:10.332Z,12.91
2018-11-13T03:02:50.861Z,12.98
2018-11-13T03:03:31.147Z,12.84
2018-11-13T03:04:11.679Z,12.8
2018-11-13T03:04:52.461Z,12.81
2018-11-13T03:05:33.705Z,12.74
2018-11-13T03:06:14.145Z,12.61
2018-11-13T03:06:54.601Z,12.67
2018-11-13T03:07:35.013Z,12.73
2018-11-13T03:08:15.343Z,12.67
2018-11-13T03:08:56.036Z,12.73
2018-11-13T03:09:36.482Z,12.74
2018-11-13T03:10:16.930Z,12.73
2018-11-13T03:10:57.525Z,12.66
2018-11-13T03:11:38.092Z,12.67
2018-11-13T03:12:18.408Z,12.71
2018-11-13T03:12:58.941Z,12.69
2018-11-13T03:13:39.592Z,12.63
2018-11-13T03:14:19.808Z,12.62
2018-11-13T03:15:00.223Z,12.74
2018-11-13T03:15:40.705Z,12.61
2018-11-13T03:16:21.213Z,12.63
2018-11-13T03:17:01.579Z,12.69
2018-11-13T03:17:42.535Z,12.66
2018-11-13T03:18:23.447Z,12.61
2018-11-13T03:19:04.426Z,12.59
2018-11-13T03:19:45.001Z,12.59
2018-11-13T03:20:25.657Z,12.61
2018-11-13T03:21:07.625Z,12.56
2018-11-13T03:21:50.311Z,12.55
2018-11-13T03:22:33.135Z,12.56
2018-11-13T03:23:14.047Z,12.55
2018-11-13T03:23:55.386Z,12.51
2018-11-13T03:24:35.997Z,12.48
2018-11-13T03:25:17.483Z,12.43
2018-11-13T03:25:57.839Z,12.44
2018-11-13T03:26:38.398Z,12.48
2018-11-13T03:27:19.724Z,12.41
2018-11-13T03:28:00.461Z,12.37
2018-11-13T03:28:40.912Z,12.37
2018-11-13T03:29:21.375Z,12.34
2018-11-13T03:30:01.795Z,12.37
2018-11-13T03:30:42.084Z,12.34
2018-11-13T03:31:23.077Z,12.34
2018-11-13T03:32:03.511Z,12.3
2018-11-13T03:32:43.909Z,12.33
2018-11-13T03:33:24.333Z,12.33
2018-11-13T03:34:04.759Z,12.37
2018-11-13T03:34:45.429Z,12.31
2018-11-13T03:35:25.869Z,12.3
2018-11-13T03:36:06.303Z,12.36
2018-11-13T03:36:46.625Z,12.4
2018-11-13T03:37:27.087Z,12.3
2018-11-13T03:38:07.504Z,12.3
2018-11-13T03:38:48.365Z,12.31
2018-11-13T03:39:28.731Z,12.33
2018-11-13T03:40:09.225Z,12.36
2018-11-13T03:40:49.639Z,12.26
2018-11-13T03:41:30.541Z,12.33
2018-11-13T03:42:10.588Z,12.26
2018-11-13T03:42:51.060Z,12.3
2018-11-13T03:43:31.420Z,12.29
2018-11-13T03:44:11.879Z,12.25
2018-11-13T03:44:52.297Z,12.29
2018-11-13T03:45:32.670Z,12.29
2018-11-13T03:46:13.068Z,12.34
2018-11-13T03:46:53.537Z,12.29
2018-11-13T03:47:33.906Z,12.37
2018-11-13T03:48:14.396Z,12.37
2018-11-13T03:48:54.645Z,12.33
2018-11-13T03:49:35.102Z,12.36
2018-11-13T03:50:15.514Z,12.48
2018-11-13T03:50:55.966Z,12.44
2018-11-13T03:51:36.645Z,12.49
2018-11-13T03:52:16.992Z,12.43
2018-11-13T03:52:57.504Z,12.44
2018-11-13T03:53:37.928Z,12.49
2018-11-13T03:54:18.352Z,12.46
2018-11-13T03:54:58.711Z,12.4
2018-11-13T03:55:39.455Z,12.51
2018-11-13T03:56:19.869Z,12.37
2018-11-13T03:57:00.354Z,12.4
2018-11-13T03:57:40.776Z,12.44
2018-11-13T03:58:21.259Z,12.46
2018-11-13T03:59:01.670Z,12.48
2018-11-13T03:59:42.141Z,12.49
2018-11-13T04:00:22.769Z,12.49
2018-11-13T04:01:03.104Z,12.49
2018-11-13T04:01:43.514Z,12.48
2018-11-13T04:02:23.989Z,12.51
2018-11-13T04:03:04.391Z,12.54
2018-11-13T04:03:44.888Z,12.62
2018-11-13T04:04:25.293Z,12.59
2018-11-13T04:05:05.729Z,12.58
2018-11-13T04:05:46.665Z,12.56
2018-11-13T04:06:27.312Z,12.61
2018-11-13T04:07:07.760Z,12.58
2018-11-13T04:07:48.114Z,12.61
2018-11-13T04:08:28.596Z,12.56
2018-11-13T04:09:09.039Z,12.61
2018-11-13T04:09:49.862Z,12.59
2018-11-13T04:10:30.323Z,12.62
2018-11-13T04:11:10.648Z,12.69
2018-11-13T04:11:51.343Z,12.62
2018-11-13T04:12:31.580Z,12.62
2018-11-13T04:13:12.096Z,12.62
2018-11-13T04:13:52.626Z,12.74
2018-11-13T04:14:32.959Z,12.63
2018-11-13T04:15:13.401Z,12.73
2018-11-13T04:15:53.915Z,12.66
2018-11-13T04:16:34.248Z,12.63
2018-11-13T04:17:14.693Z,12.63
2018-11-13T04:17:56.242Z,12.66
2018-11-13T04:18:36.404Z,12.69
2018-11-13T04:19:16.860Z,12.7
2018-11-13T04:19:57.279Z,12.66
2018-11-13T04:20:37.826Z,12.7
2018-11-13T04:21:18.506Z,12.61
2018-11-13T04:21:58.837Z,12.7
2018-11-13T04:22:39.373Z,12.71
2018-11-13T04:23:19.800Z,12.81
2018-11-13T04:24:00.039Z,12.74
2018-11-13T04:24:45.777Z,12.73
2018-11-13T04:25:26.046Z,12.76
2018-11-13T04:26:06.527Z,12.77
2018-11-13T04:26:47.557Z,12.7
2018-11-13T04:27:30.953Z,12.85
2018-11-13T05:10:11.517Z,12.12
2018-11-13T05:11:10.114Z,12.07
2018-11-13T05:12:03.926Z,12.13
2018-11-13T05:12:57.534Z,12.04
2018-11-13T05:13:52.720Z,12.04
2018-11-13T05:14:45.874Z,12.07
2018-11-13T05:15:38.095Z,12.11
2018-11-13T05:16:30.052Z,12.08
2018-11-13T05:17:22.448Z,12.11
2018-11-13T05:18:14.919Z,12.21
2018-11-13T05:19:07.548Z,12.37
2018-11-13T05:20:02.796Z,12.3
2018-11-13T05:21:00.323Z,12.41
2018-11-13T05:21:52.798Z,12.4
2018-11-13T05:22:45.591Z,12.48
2018-11-13T05:23:37.810Z,12.54
2018-11-13T05:24:31.512Z,12.61
2018-11-13T05:25:23.689Z,12.61
2018-11-13T05:26:17.342Z,12.73
2018-11-13T05:27:09.340Z,12.77
2018-11-13T05:28:02.589Z,12.76
2018-11-13T05:28:55.151Z,12.79
2018-11-13T05:29:50.750Z,12.98
2018-11-13T05:30:44.931Z,12.96
2018-11-13T05:31:40.148Z,13.01
2018-11-13T05:32:34.828Z,12.95
2018-11-13T05:37:39.838Z,13.22
2018-11-13T05:38:33.273Z,13.24
2018-11-13T05:39:25.969Z,13.27
2018-11-13T05:40:20.234Z,13.25
2018-11-13T05:41:13.572Z,13.22
2018-11-13T05:42:06.368Z,13.16
2018-11-13T05:44:31.764Z,13.13
2018-11-13T05:45:17.200Z,13.14
2018-11-13T05:45:57.465Z,13.1
2018-11-13T05:46:38.049Z,13.16
2018-11-13T05:47:18.478Z,13.12
2018-11-13T05:47:59.033Z,13.14
2018-11-13T05:48:39.367Z,13.12
2018-11-13T05:49:19.789Z,13.07
2018-11-13T05:50:00.185Z,13.04
2018-11-13T05:50:40.685Z,13.04
2018-11-13T05:51:22.345Z,12.99
2018-11-13T05:53:39.183Z,13.09
2018-11-13T05:54:32.302Z,13.07
2018-11-13T05:56:39.553Z,13.24
2018-11-13T05:57:19.956Z,13.25
2018-11-13T05:58:01.271Z,13.25
2018-11-13T05:58:41.777Z,13.28
2018-11-13T05:59:22.604Z,13.32
2018-11-13T06:00:03.012Z,13.31
2018-11-13T06:00:44.427Z,13.27
2018-11-13T06:01:25.393Z,13.25
2018-11-13T06:02:05.888Z,13.39
2018-11-13T06:02:46.460Z,13.35
2018-11-13T06:03:28.373Z,13.29
2018-11-13T06:04:09.468Z,13.32
2018-11-13T06:04:50.400Z,13.39
2018-11-13T06:05:31.588Z,13.29
2018-11-13T06:06:11.707Z,13.38
2018-11-13T06:06:52.083Z,13.38
2018-11-13T06:07:33.221Z,13.39
2018-11-13T06:08:13.242Z,13.32
2018-11-13T06:08:53.771Z,13.38
2018-11-13T06:09:34.921Z,13.38
2018-11-13T06:10:15.376Z,13.43
2018-11-13T06:10:55.783Z,13.32
2018-11-13T06:11:36.816Z,13.27
2018-11-13T06:12:17.106Z,13.29
2018-11-13T06:12:57.961Z,13.22
2018-11-13T06:13:38.242Z,13.25
2018-11-13T06:14:20.102Z,13.24
2018-11-13T06:15:01.940Z,13.16
2018-11-13T06:15:42.527Z,13.22
2018-11-13T06:16:23.614Z,13.17
2018-11-13T06:17:04.126Z,13.17
2018-11-13T06:17:47.615Z,13.17
2018-11-13T06:18:27.588Z,13.12
2018-11-13T06:19:08.081Z,13.24
2018-11-13T06:19:48.619Z,13.25
2018-11-13T06:20:29.030Z,13.22
2018-11-13T06:21:10.322Z,13.19
2018-11-13T06:21:52.075Z,13.35
2018-11-13T06:22:32.652Z,13.38
2018-11-13T06:23:14.085Z,13.43
2018-11-13T06:23:55.223Z,13.39
2018-11-13T06:24:35.335Z,13.48
2018-11-13T06:25:16.696Z,13.41
2018-11-13T06:25:57.592Z,13.38
2018-11-13T06:26:41.882Z,13.32
2018-11-13T06:27:25.097Z,13.32
2018-11-13T06:29:15.387Z,13.38
2018-11-13T06:29:55.531Z,13.35
2018-11-13T06:30:36.107Z,13.32
2018-11-13T06:31:16.660Z,13.29
2018-11-13T06:31:57.055Z,13.43
2018-11-13T06:32:38.001Z,13.32
2018-11-13T06:33:19.000Z,13.47
2018-11-13T06:33:59.507Z,13.47
2018-11-13T06:34:40.303Z,13.46
2018-11-13T06:35:20.496Z,13.48
2018-11-13T06:36:01.027Z,13.46
2018-11-13T06:36:41.723Z,13.44
2018-11-13T06:37:22.145Z,13.57
2018-11-13T06:38:02.906Z,13.5
2018-11-13T06:38:43.748Z,13.57
2018-11-13T06:39:24.113Z,13.57
2018-11-13T06:40:04.648Z,13.63
2018-11-13T06:40:45.069Z,13.55
2018-11-13T06:41:25.602Z,13.48
2018-11-13T06:42:06.080Z,13.55
2018-11-13T06:42:46.635Z,13.53
2018-11-13T06:43:27.425Z,13.54
2018-11-13T06:45:31.368Z,13.41
2018-11-13T06:47:23.350Z,13.47
2018-11-13T06:48:06.292Z,13.46
2018-11-13T06:48:47.433Z,13.38
2018-11-13T06:49:29.785Z,13.47
2018-11-13T06:50:10.144Z,13.44
2018-11-13T06:50:50.679Z,13.47
2018-11-13T06:51:31.239Z,13.48
2018-11-13T06:52:12.145Z,13.5
2018-11-13T06:52:53.497Z,13.48
2018-11-13T06:54:43.401Z,13.57
2018-11-13T06:55:23.497Z,13.51
2018-11-13T06:56:05.124Z,13.47
2018-11-13T06:56:48.245Z,13.47
2018-11-13T06:57:28.807Z,13.48
2018-11-13T06:58:10.688Z,13.46
2018-11-13T07:08:27.090Z,13.43
2018-11-13T07:09:14.319Z,13.38
2018-11-13T07:09:55.862Z,13.35
2018-11-13T07:10:36.189Z,13.32
2018-11-13T07:11:16.887Z,13.31
2018-11-13T07:11:57.272Z,13.36
2018-11-13T07:12:38.910Z,13.35
2018-11-13T07:13:19.763Z,13.32
2018-11-13T07:14:01.017Z,13.35
2018-11-13T07:14:42.291Z,13.32
2018-11-13T07:18:40.481Z,13.32
2018-11-13T07:20:36.043Z,13.38
2018-11-13T07:25:51.065Z,13.43
2018-11-13T07:26:46.170Z,13.43
2018-11-13T07:27:40.902Z,13.39
2018-11-13T07:28:34.420Z,13.48
2018-11-13T07:29:26.219Z,13.47
2018-11-13T07:30:19.209Z,13.55
2018-11-13T07:31:11.549Z,13.54
2018-11-13T07:32:04.001Z,13.53
2018-11-13T07:32:58.793Z,13.57
2018-11-13T07:33:55.805Z,13.59
2018-11-13T07:34:49.590Z,13.68
2018-11-13T07:35:42.534Z,13.86
2018-11-13T07:36:37.743Z,13.96
2018-11-13T07:38:01.240Z,14.27
2018-11-13T07:40:03.445Z,14.69
2018-11-13T07:41:18.640Z,15.04
2018-11-13T07:42:25.353Z,15.33
2018-11-13T07:53:16.150Z,17.47
2018-11-13T07:53:58.231Z,17.57
2018-11-13T07:54:38.558Z,17.62
2018-11-13T07:55:18.996Z,17.71
2018-11-13T07:55:59.597Z,17.81
2018-11-13T07:56:40.839Z,17.96
2018-11-13T07:57:20.980Z,18.16
2018-11-13T07:58:01.450Z,18.25
2018-11-13T08:02:28.912Z,18.46
2018-11-13T08:03:10.035Z,18.6
2018-11-13T08:03:50.496Z,18.83
2018-11-13T08:04:30.802Z,18.86
2018-11-13T08:05:11.252Z,18.89
2018-11-13T08:05:52.315Z,18.83
2018-11-13T08:06:32.770Z,18.82
2018-11-13T08:07:13.341Z,18.68
2018-11-13T08:07:53.601Z,18.75
2018-11-13T08:08:34.087Z,18.64
2018-11-13T08:09:14.478Z,18.56
2018-11-13T08:09:54.913Z,18.44
2018-11-13T08:10:35.295Z,18.32
2018-11-13T08:11:15.679Z,18.41
2018-11-13T08:11:56.291Z,18.21
2018-11-13T08:12:37.208Z,18.14
2018-11-13T08:13:17.733Z,18.04
2018-11-13T08:13:58.415Z,17.81
2018-11-13T08:14:39.268Z,17.81
2018-11-13T08:15:19.993Z,17.76
2018-11-13T08:16:00.483Z,17.63
2018-11-13T08:16:41.055Z,17.49
2018-11-13T08:17:21.566Z,17.49
2018-11-13T08:18:02.332Z,17.43
2018-11-13T08:18:42.699Z,17.45
2018-11-13T08:19:23.255Z,17.47
2018-11-13T08:20:03.686Z,17.27
2018-11-13T08:20:46.051Z,17.3
2018-11-13T08:21:26.111Z,17.24
2018-11-13T08:22:06.666Z,17.15
2018-11-13T08:22:46.902Z,17.27
2018-11-13T08:23:30.484Z,17.12
2018-11-13T08:40:57.121Z,17.49
2018-11-13T08:42:12.274Z,17.45
2018-11-13T08:51:46.242Z,17.62
2018-11-13T08:52:28.088Z,17.81
2018-11-13T08:53:08.495Z,17.99
2018-11-13T08:53:52.603Z,18.17
2018-11-13T08:54:34.480Z,18.21
2018-11-13T08:55:17.209Z,18.5
2018-11-13T08:55:59.104Z,18.57
2018-11-13T08:56:40.815Z,18.64
2018-11-13T08:57:22.730Z,18.74
2018-11-13T08:58:04.070Z,18.93
2018-11-13T08:58:45.059Z,19.23
2018-11-13T08:59:25.912Z,19.35
2018-11-13T09:00:06.908Z,19.52
2018-11-13T09:00:48.263Z,19.45
2018-11-13T09:01:28.781Z,19.4
2018-11-13T09:02:10.562Z,19.52
2018-11-13T09:02:50.948Z,19.49
2018-11-13T09:03:32.094Z,19.61
2018-11-13T09:04:13.239Z,19.62
2018-11-13T09:04:54.135Z,19.67
2018-11-13T09:05:35.401Z,19.65
2018-11-13T09:06:16.600Z,19.78
2018-11-13T09:07:01.406Z,19.76
2018-11-13T09:07:42.647Z,19.9
2018-11-13T09:08:25.102Z,19.87
2018-11-13T09:09:06.121Z,20.08
2018-11-13T09:09:47.563Z,20.19
2018-11-13T09:10:27.839Z,20.26
2018-11-13T09:11:08.944Z,20.44
2018-11-13T09:11:51.355Z,20.48
2018-11-13T09:12:31.927Z,20.72
2018-11-13T09:13:13.194Z,20.93
2018-11-13T09:13:54.467Z,21.01
2018-11-13T09:14:36.662Z,21.16
2018-11-13T09:15:18.690Z,21.22
2018-11-13T09:16:00.907Z,21.42
2018-11-13T09:16:42.308Z,21.45
2018-11-13T09:17:23.275Z,21.46
2018-11-13T09:18:04.609Z,21.63
2018-11-13T09:18:45.635Z,21.66
2018-11-13T09:19:27.969Z,21.55
2018-11-13T09:20:08.566Z,21.81
2018-11-13T09:20:50.053Z,21.75
2018-11-13T09:21:30.491Z,21.61
2018-11-13T09:22:12.642Z,21.74
2018-11-13T09:22:52.516Z,21.73
2018-11-13T09:23:33.379Z,21.64
2018-11-13T09:24:14.594Z,21.61
2018-11-13T09:24:56.138Z,21.49
2018-11-13T09:25:38.029Z,21.49
2018-11-13T09:26:20.680Z,21.49
2018-11-13T09:27:00.898Z,21.34
2018-11-13T09:27:42.043Z,21.28
2018-11-13T09:28:23.584Z,21.38
2018-11-13T09:29:03.651Z,21.34
2018-11-13T09:29:44.291Z,21.46
2018-11-13T09:30:26.394Z,21.52
2018-11-13T09:31:06.095Z,21.7
2018-11-13T09:31:46.817Z,21.59
2018-11-13T09:32:27.787Z,21.63
2018-11-13T09:33:08.879Z,21.66
2018-11-13T09:33:50.061Z,21.63
2018-11-13T09:34:30.500Z,21.71
2018-11-13T09:35:11.346Z,21.79
2018-11-13T09:35:53.276Z,21.68
2018-11-13T09:36:34.231Z,21.7
2018-11-13T09:37:15.052Z,21.73
2018-11-13T09:37:57.123Z,21.64
2018-11-13T09:38:37.092Z,21.61
2018-11-13T09:39:17.591Z,21.45
2018-11-13T09:39:59.263Z,21.48
2018-11-13T09:40:40.319Z,21.48
2018-11-13T09:41:21.670Z,21.56
2018-11-13T09:42:02.609Z,21.73
2018-11-13T09:42:42.939Z,21.67
2018-11-13T09:43:24.097Z,21.67
2018-11-13T09:44:06.081Z,21.7
2018-11-13T09:44:46.622Z,21.64
2018-11-13T09:45:27.833Z,21.59
2018-11-13T09:46:09.574Z,21.45
2018-11-13T09:46:50.060Z,21.48
2018-11-13T09:47:30.588Z,21.67
2018-11-13T09:48:12.113Z,21.71
2018-11-13T09:48:52.649Z,21.7
2018-11-13T09:49:33.175Z,21.75
2018-11-13T09:50:14.591Z,21.73
2018-11-13T09:50:56.429Z,21.85
2018-11-13T09:51:36.841Z,21.86
2018-11-13T09:52:21.332Z,21.98
2018-11-13T09:53:03.681Z,22.06
2018-11-13T09:53:44.763Z,22.12
2018-11-13T09:54:26.025Z,22.31
2018-11-13T09:55:09.863Z,22.33
2018-11-13T09:55:50.266Z,22.33
2018-11-13T09:56:31.379Z,22.35
2018-11-13T09:57:11.904Z,22.29
2018-11-13T09:57:52.574Z,22.41
2018-11-13T09:58:37.148Z,22.33
2018-11-13T10:02:13.903Z,21.93
2018-11-13T10:02:55.330Z,21.85
2018-11-13T10:03:37.494Z,21.68
2018-11-13T10:04:18.215Z,21.61
2018-11-13T10:04:59.140Z,21.45
2018-11-13T10:05:39.313Z,21.53
2018-11-13T10:06:20.808Z,21.56
2018-11-13T10:07:04.718Z,21.48
2018-11-13T10:07:45.955Z,21.45
2018-11-13T10:08:27.590Z,21.38
2018-11-13T10:09:08.403Z,21.38
2018-11-13T10:09:49.451Z,21.28
2018-11-13T10:10:30.165Z,21.05
2018-11-13T10:11:10.764Z,20.9
2018-11-13T10:11:52.671Z,20.61
2018-11-13T10:12:33.143Z,20.46
2018-11-13T10:13:14.045Z,20.31
2018-11-13T10:13:54.569Z,20.13
2018-11-13T10:14:35.310Z,19.94
2018-11-13T10:15:17.026Z,19.79
2018-11-13T10:15:57.678Z,19.75
2018-11-13T10:16:38.678Z,19.4
2018-11-13T10:17:19.239Z,19.12
2018-11-13T10:18:00.334Z,18.91
2018-11-13T10:18:43.133Z,18.74
2018-11-13T10:19:25.237Z,18.47
2018-11-13T10:20:06.121Z,18.28
2018-11-13T10:20:46.698Z,18.32
2018-11-13T10:21:28.237Z,18.31
2018-11-13T10:22:12.728Z,18.17
2018-11-13T10:22:53.563Z,18.1
2018-11-13T10:23:34.704Z,18.02
2018-11-13T10:24:16.776Z,17.73
2018-11-13T10:24:59.912Z,17.74
2018-11-13T10:25:40.688Z,17.47
2018-11-13T10:26:21.534Z,17.36
2018-11-13T10:27:02.269Z,17.25
2018-11-13T10:27:42.894Z,17.38
2018-11-13T10:28:24.046Z,17.43
2018-11-13T10:29:05.311Z,17.49
2018-11-13T11:10:24.869Z,20.48
2018-11-13T11:11:07.126Z,20.42
2018-11-13T11:11:48.083Z,20.33
2018-11-13T11:12:29.035Z,20.27
2018-11-13T11:13:10.637Z,20.35
2018-11-13T11:13:53.700Z,20.5
2018-11-13T11:14:36.033Z,20.5
2018-11-13T11:15:17.559Z,20.4
2018-11-13T11:15:58.065Z,20.31
2018-11-13T11:16:38.782Z,20.3
2018-11-13T11:17:19.024Z,20.42
2018-11-13T11:17:59.851Z,20.46
2018-11-13T11:18:40.560Z,20.71
2018-11-13T11:19:20.912Z,20.78
2018-11-13T11:20:01.373Z,20.61
2018-11-13T11:20:41.767Z,20.63
2018-11-13T11:21:22.542Z,20.44
2018-11-13T11:22:04.256Z,20.27
2018-11-13T11:22:47.089Z,20.25
2018-11-13T11:23:29.495Z,20.17
2018-11-13T11:24:11.971Z,20.13
2018-11-13T11:24:52.784Z,20.07
2018-11-13T11:25:33.635Z,19.97
2018-11-13T11:26:15.464Z,20.08
2018-11-13T11:26:56.099Z,20.33
2018-11-13T11:27:36.685Z,20.31
2018-11-13T11:28:17.253Z,20.5
2018-11-13T11:28:57.729Z,20.51
2018-11-13T11:29:39.054Z,20.48
2018-11-13T11:30:19.797Z,20.46
2018-11-13T11:31:00.392Z,20.38
2018-11-13T11:31:41.146Z,20.42
2018-11-13T11:32:22.435Z,20.48
2018-11-13T11:33:03.285Z,20.41
2018-11-13T11:33:44.236Z,20.16
2018-11-13T11:34:24.592Z,20.07
2018-11-13T11:35:05.138Z,19.9
2018-11-13T11:35:45.691Z,19.82
2018-11-13T11:36:26.110Z,19.7
2018-11-13T11:37:07.005Z,19.8
2018-11-13T11:37:47.662Z,19.87
2018-11-13T11:38:28.210Z,20
2018-11-13T11:39:08.964Z,20.04
2018-11-13T11:39:49.652Z,20.08
2018-11-13T11:40:30.044Z,20.13
2018-11-13T11:41:10.892Z,20.2
2018-11-13T11:41:51.386Z,20.33
2018-11-13T11:42:31.923Z,20.27
2018-11-13T11:43:12.778Z,20.17
2018-11-13T11:43:53.212Z,20.33
2018-11-13T11:44:33.687Z,20.46
2018-11-13T11:45:14.466Z,20.53
2018-11-13T11:45:55.310Z,20.53
2018-11-13T11:46:35.768Z,20.6
2018-11-13T11:47:16.333Z,20.61
2018-11-13T11:47:57.024Z,20.69
2018-11-13T11:48:37.499Z,20.6
2018-11-13T11:49:21.540Z,20.53
2018-11-13T11:50:02.036Z,20.53
2018-11-13T11:50:42.620Z,20.5
2018-11-13T11:51:24.204Z,20.63
2018-11-13T11:52:04.845Z,20.6
2018-11-13T11:52:45.404Z,20.71
2018-11-13T11:53:25.873Z,20.71
2018-11-13T11:54:07.387Z,20.6